createdAt,value
2022-09-02T00:02:17.511Z,22.00
2022-09-02T00:04:46.032Z,22.00
2022-09-02T00:07:14.310Z,22.00
2022-09-02T00:09:42.670Z,21.90
2022-09-02T00:12:12.930Z,21.90
2022-09-02T00:16:13.849Z,21.90
2022-09-02T00:18:44.959Z,21.90
2022-09-02T00:21:14.397Z,21.80
2022-09-02T00:23:43.120Z,21.80
2022-09-02T00:26:11.636Z,21.70
2022-09-02T00:28:51.223Z,21.70
2022-09-02T00:31:24.657Z,21.60
2022-09-02T00:33:53.441Z,21.60
2022-09-02T00:36:21.758Z,21.50
2022-09-02T00:38:50.053Z,21.50
2022-09-02T00:41:20.095Z,21.40
2022-09-02T00:43:51.301Z,21.40
2022-09-02T00:46:22.767Z,21.30
2022-09-02T00:48:56.520Z,21.30
2022-09-02T00:51:24.866Z,21.20
2022-09-02T00:53:53.007Z,21.20
2022-09-02T00:56:23.745Z,21.20
2022-09-02T00:58:53.394Z,21.20
2022-09-02T01:01:22.589Z,21.10
2022-09-02T01:03:51.121Z,21.10
2022-09-02T01:06:21.846Z,21.10
2022-09-02T01:08:54.495Z,21.10
2022-09-02T01:11:22.748Z,21.10
2022-09-02T01:13:52.301Z,21.00
2022-09-02T01:16:25.648Z,21.00
2022-09-02T01:18:55.453Z,21.00
2022-09-02T01:21:24.134Z,21.00
2022-09-02T01:23:54.168Z,21.00
2022-09-02T01:26:22.372Z,20.90
2022-09-02T01:28:50.517Z,20.90
2022-09-02T01:31:19.371Z,20.90
2022-09-02T01:33:47.595Z,20.90
2022-09-02T01:36:15.787Z,20.80
2022-09-02T01:38:44.031Z,20.80
2022-09-02T01:41:13.525Z,20.80
2022-09-02T01:43:41.746Z,20.80
2022-09-02T01:46:10.140Z,20.80
2022-09-02T01:48:38.659Z,20.70
2022-09-02T01:51:07.138Z,20.70
2022-09-02T01:53:36.417Z,20.70
2022-09-02T01:56:07.769Z,20.70
2022-09-02T01:58:37.364Z,20.70
2022-09-02T02:01:06.646Z,20.70
2022-09-02T02:03:36.855Z,20.70
2022-09-02T02:06:10.794Z,20.60
2022-09-02T02:08:39.904Z,20.60
2022-09-02T02:11:08.814Z,20.60
2022-09-02T02:13:39.736Z,20.60
2022-09-02T02:16:08.501Z,20.60
2022-09-02T02:18:37.595Z,20.60
2022-09-02T02:21:05.971Z,20.50
2022-09-02T02:23:34.331Z,20.50
2022-09-02T02:26:02.536Z,20.50
2022-09-02T02:28:31.271Z,20.50
2022-09-02T02:31:00.884Z,20.50
2022-09-02T02:33:35.005Z,20.50
2022-09-02T02:36:05.462Z,20.40
2022-09-02T02:38:33.978Z,20.40
2022-09-02T02:41:06.294Z,20.40
2022-09-02T02:43:34.783Z,20.40
2022-09-02T02:46:04.564Z,20.40
2022-09-02T02:48:32.784Z,20.40
2022-09-02T02:51:01.187Z,20.40
2022-09-02T02:53:31.201Z,20.40
2022-09-02T02:55:59.683Z,20.40
2022-09-02T02:58:27.878Z,20.40
2022-09-02T03:00:56.652Z,20.40
2022-09-02T03:03:26.710Z,20.30
2022-09-02T03:05:57.084Z,20.30
2022-09-02T03:08:26.843Z,20.30
2022-09-02T03:10:56.141Z,20.30
2022-09-02T03:13:27.508Z,20.30
2022-09-02T03:15:58.070Z,20.30
2022-09-02T03:18:28.856Z,20.30
2022-09-02T03:20:58.032Z,20.30
2022-09-02T03:23:26.261Z,20.30
2022-09-02T03:25:54.671Z,20.30
2022-09-02T03:28:33.962Z,20.30
2022-09-02T03:31:04.074Z,20.30
2022-09-02T03:33:33.908Z,20.30
2022-09-02T03:36:02.086Z,20.30
2022-09-02T03:38:30.909Z,20.30
2022-09-02T03:40:59.291Z,20.30
2022-09-02T03:43:27.532Z,20.30
2022-09-02T03:45:56.264Z,20.30
2022-09-02T03:48:24.850Z,20.30
2022-09-02T03:50:55.085Z,20.20
2022-09-02T03:53:23.679Z,20.20
2022-09-02T03:55:57.967Z,20.20
2022-09-02T03:58:28.379Z,20.20
2022-09-02T04:00:58.777Z,20.20
2022-09-02T04:03:27.436Z,20.20
2022-09-02T04:05:57.173Z,20.20
2022-09-02T04:08:28.235Z,20.20
2022-09-02T04:11:00.238Z,20.20
2022-09-02T04:13:28.342Z,20.20
2022-09-02T04:15:59.823Z,20.20
2022-09-02T04:18:31.113Z,20.20
2022-09-02T04:21:02.261Z,20.10
2022-09-02T04:23:30.723Z,20.10
2022-09-02T04:25:59.080Z,20.10
2022-09-02T04:28:28.382Z,20.10
2022-09-02T04:30:57.375Z,20.10
2022-09-02T04:33:26.986Z,20.10
2022-09-02T04:35:55.730Z,20.10
2022-09-02T04:38:25.760Z,20.10
2022-09-02T04:40:55.479Z,20.10
2022-09-02T04:43:24.078Z,20.10
2022-09-02T04:45:57.641Z,20.00
2022-09-02T04:48:28.365Z,20.00
2022-09-02T04:50:56.906Z,20.00
2022-09-02T04:53:29.015Z,20.00
2022-09-02T04:55:58.291Z,20.00
2022-09-02T04:58:28.693Z,20.00
2022-09-02T05:00:57.238Z,20.00
2022-09-02T05:03:29.999Z,20.00
2022-09-02T05:06:03.073Z,20.00
2022-09-02T05:08:36.465Z,20.00
2022-09-02T05:11:06.919Z,20.00
2022-09-02T05:13:36.135Z,20.00
2022-09-02T05:16:06.953Z,20.00
2022-09-02T05:18:39.044Z,20.00
2022-09-02T05:21:08.928Z,20.00
2022-09-02T05:23:40.003Z,20.00
2022-09-02T05:26:10.355Z,20.00
2022-09-02T05:28:39.842Z,20.00
2022-09-02T05:31:12.435Z,20.00
2022-09-02T05:33:42.062Z,20.00
2022-09-02T05:36:13.289Z,20.00
2022-09-02T05:38:43.389Z,20.00
2022-09-02T05:41:15.949Z,20.00
2022-09-02T05:43:45.824Z,20.00
2022-09-02T05:46:18.341Z,20.00
2022-09-02T05:49:04.955Z,20.00
2022-09-02T05:51:33.773Z,20.10
2022-09-02T05:54:06.632Z,20.10
2022-09-02T05:56:36.018Z,20.20
2022-09-02T05:59:08.715Z,20.30
2022-09-02T06:01:38.600Z,20.50
2022-09-02T06:04:08.420Z,20.70
2022-09-02T06:06:39.504Z,20.90
2022-09-02T06:09:13.486Z,21.20
2022-09-02T06:11:45.994Z,21.50
2022-09-02T06:14:20.187Z,21.70
2022-09-02T06:16:50.355Z,22.00
2022-09-02T06:19:28.965Z,22.30
2022-09-02T06:21:59.603Z,22.60
2022-09-02T06:24:31.917Z,22.90
2022-09-02T06:27:09.054Z,23.20
2022-09-02T06:29:40.365Z,23.50
2022-09-02T06:32:13.175Z,23.80
2022-09-02T06:34:46.049Z,24.00
2022-09-02T06:37:17.038Z,24.30
2022-09-02T06:39:49.948Z,24.50
2022-09-02T06:42:23.889Z,24.80
2022-09-02T06:45:15.906Z,25.00
2022-09-02T06:47:48.364Z,25.20
2022-09-02T06:50:18.863Z,25.40
2022-09-02T06:52:48.561Z,25.60
2022-09-02T06:55:21.781Z,25.80
2022-09-02T06:57:50.675Z,25.90
2022-09-02T07:00:21.990Z,26.00
2022-09-02T07:03:14.797Z,26.10
2022-09-02T07:05:45.025Z,26.30
2022-09-02T07:08:13.990Z,26.50
2022-09-02T07:10:46.988Z,26.60
2022-09-02T07:13:15.807Z,26.80
2022-09-02T07:15:46.551Z,26.90
2022-09-02T07:18:16.436Z,27.10
2022-09-02T07:20:47.818Z,27.20
2022-09-02T07:23:17.298Z,27.30
2022-09-02T07:25:47.948Z,27.40
2022-09-02T07:28:18.054Z,27.40
2022-09-02T07:30:48.957Z,27.40
2022-09-02T07:33:20.280Z,27.50
2022-09-02T07:35:50.361Z,27.60
2022-09-02T07:38:19.582Z,27.70
2022-09-02T07:40:51.167Z,27.80
2022-09-02T07:43:27.367Z,27.90
2022-09-02T07:45:56.524Z,28.00
2022-09-02T07:48:26.429Z,28.10
2022-09-02T07:50:56.357Z,28.20
2022-09-02T07:53:28.693Z,28.20
2022-09-02T07:56:00.418Z,28.30
2022-09-02T07:58:30.579Z,28.30
2022-09-02T08:01:06.911Z,28.40
2022-09-02T08:03:39.510Z,28.40
2022-09-02T08:06:10.984Z,28.40
2022-09-02T08:08:40.205Z,28.50
2022-09-02T08:11:10.962Z,28.40
2022-09-02T08:13:39.454Z,28.50
2022-09-02T08:16:09.712Z,28.50
2022-09-02T08:18:39.431Z,28.60
2022-09-02T08:21:09.977Z,28.70
2022-09-02T08:23:39.545Z,28.70
2022-09-02T08:26:08.073Z,28.80
2022-09-02T08:28:39.738Z,28.80
2022-09-02T08:31:08.364Z,28.80
2022-09-02T08:33:38.358Z,28.80
2022-09-02T08:36:11.091Z,28.80
2022-09-02T08:38:39.351Z,28.70
2022-09-02T08:41:14.993Z,28.70
2022-09-02T08:43:47.020Z,28.70
2022-09-02T08:46:18.078Z,28.70
2022-09-02T08:48:50.710Z,28.70
2022-09-02T08:51:24.169Z,28.80
2022-09-02T08:53:59.535Z,28.90
2022-09-02T08:56:28.454Z,29.00
2022-09-02T08:59:02.204Z,29.00
2022-09-02T09:01:41.065Z,29.10
2022-09-02T09:04:21.550Z,29.10
2022-09-02T09:07:05.231Z,29.10
2022-09-02T09:09:45.848Z,29.10
2022-09-02T09:12:17.098Z,29.10
2022-09-02T09:14:49.735Z,29.10
2022-09-02T09:17:23.442Z,29.20
2022-09-02T09:19:58.520Z,29.20
2022-09-02T09:22:32.601Z,29.20
2022-09-02T09:25:03.436Z,29.30
2022-09-02T09:27:36.459Z,29.30
2022-09-02T09:30:12.952Z,29.30
2022-09-02T09:32:47.424Z,29.30
2022-09-02T09:35:18.689Z,29.30
2022-09-02T09:37:50.058Z,29.30
2022-09-02T09:40:32.163Z,29.20
2022-09-02T09:43:15.812Z,29.20
2022-09-02T09:45:47.414Z,29.10
2022-09-02T09:48:27.502Z,29.20
2022-09-02T09:51:17.164Z,29.20
2022-09-02T09:53:46.442Z,29.20
2022-09-02T09:56:32.255Z,29.20
2022-09-02T09:59:10.297Z,29.20
2022-09-02T10:01:41.668Z,29.20
2022-09-02T10:04:42.231Z,29.20
2022-09-02T10:07:00.417Z,29.20
2022-09-02T10:09:34.434Z,29.20
2022-09-02T10:12:06.329Z,29.10
2022-09-02T10:14:40.392Z,29.00
2022-09-02T10:17:24.018Z,29.00
2022-09-02T10:19:56.451Z,29.00
2022-09-02T10:22:59.561Z,29.00
2022-09-02T10:25:35.417Z,29.00
2022-09-02T10:28:27.760Z,29.10
2022-09-02T10:31:05.554Z,29.10
2022-09-02T10:33:52.797Z,29.20
2022-09-02T10:36:29.769Z,29.30
2022-09-02T10:39:04.039Z,29.40
2022-09-02T10:44:31.351Z,29.50
2022-09-02T10:47:02.197Z,29.60
2022-09-02T10:49:46.876Z,29.70
2022-09-02T10:52:30.101Z,29.70
2022-09-02T10:55:05.804Z,29.70
2022-09-02T10:57:42.205Z,29.80
2022-09-02T11:00:15.217Z,29.70
2022-09-02T11:02:48.996Z,29.70
2022-09-02T11:05:21.248Z,29.70
2022-09-02T11:07:54.037Z,29.70
2022-09-02T11:10:27.929Z,29.80
2022-09-02T11:13:01.914Z,29.70
2022-09-02T11:15:41.554Z,29.70
2022-09-02T11:18:15.146Z,29.70
2022-09-02T11:20:50.382Z,29.70
2022-09-02T11:23:25.433Z,29.80
2022-09-02T11:26:00.142Z,29.80
2022-09-02T11:28:34.366Z,29.90
2022-09-02T11:31:07.755Z,29.90
2022-09-02T11:33:48.172Z,29.90
2022-09-02T11:36:20.487Z,29.90
2022-09-02T11:38:54.015Z,30.00
2022-09-02T11:41:39.307Z,30.00
2022-09-02T11:44:41.533Z,30.10
2022-09-02T11:47:50.233Z,30.20
2022-09-02T11:50:39.516Z,30.30
2022-09-02T11:53:21.453Z,30.40
2022-09-02T11:55:51.586Z,30.40
2022-09-02T11:58:35.344Z,30.40
2022-09-02T12:01:25.806Z,30.40
2022-09-02T12:04:42.037Z,30.40
2022-09-02T12:07:26.814Z,30.50
2022-09-02T12:10:02.741Z,30.60
2022-09-02T12:13:08.552Z,30.70
2022-09-02T12:15:40.558Z,30.80
2022-09-02T12:18:28.708Z,30.90
2022-09-02T12:21:08.631Z,31.00
2022-09-02T12:24:20.826Z,31.00
2022-09-02T12:27:23.292Z,31.10
2022-09-02T12:29:53.590Z,31.10
2022-09-02T12:33:12.425Z,31.10
2022-09-02T12:35:55.262Z,31.20
2022-09-02T12:38:38.636Z,31.20
2022-09-02T12:41:25.168Z,31.20
2022-09-02T12:44:10.298Z,31.30
2022-09-02T12:47:05.635Z,31.40
2022-09-02T12:49:46.046Z,31.50
2022-09-02T12:52:43.419Z,31.60
2022-09-02T12:55:21.454Z,31.70
2022-09-02T12:57:51.525Z,31.80
2022-09-02T13:00:30.815Z,31.90
2022-09-02T13:03:12.842Z,31.90
2022-09-02T13:05:55.794Z,31.90
2022-09-02T13:09:10.647Z,31.80
2022-09-02T13:12:18.979Z,31.70
2022-09-02T13:14:55.947Z,31.60
2022-09-02T13:17:36.483Z,31.60
2022-09-02T13:20:40.235Z,31.50
2022-09-02T13:24:05.811Z,31.40
2022-09-02T13:27:29.023Z,31.40
2022-09-02T13:30:07.536Z,31.50
2022-09-02T13:32:41.341Z,31.50
2022-09-02T13:35:23.988Z,31.50
2022-09-02T13:38:00.350Z,31.60
2022-09-02T13:40:33.533Z,31.60
2022-09-02T13:43:03.003Z,31.50
2022-09-02T13:45:34.074Z,31.50
2022-09-02T13:48:08.518Z,31.60
2022-09-02T13:50:44.414Z,31.60
2022-09-02T13:56:12.164Z,31.70
2022-09-02T13:58:43.452Z,31.70
2022-09-02T14:01:21.778Z,31.70
2022-09-02T14:03:57.832Z,31.70
2022-09-02T14:06:28.853Z,31.70
2022-09-02T14:09:01.120Z,31.60
2022-09-02T14:11:40.091Z,31.60
2022-09-02T14:14:08.643Z,31.60
2022-09-02T14:16:39.762Z,31.60
2022-09-02T14:19:14.356Z,31.60
2022-09-02T14:21:47.749Z,31.60
2022-09-02T14:24:22.075Z,31.60
2022-09-02T14:26:52.594Z,31.60
2022-09-02T14:29:21.273Z,31.60
2022-09-02T14:32:13.390Z,31.60
2022-09-02T14:34:43.761Z,31.60
2022-09-02T14:37:24.199Z,31.60
2022-09-02T14:40:06.928Z,31.60
2022-09-02T14:42:35.681Z,31.60
2022-09-02T14:45:05.643Z,31.70
2022-09-02T14:47:36.643Z,31.70
2022-09-02T14:50:15.354Z,31.60
2022-09-02T14:52:48.021Z,31.60
2022-09-02T14:55:50.332Z,31.60
2022-09-02T14:58:18.707Z,31.50
2022-09-02T15:00:48.428Z,31.40
2022-09-02T15:03:17.273Z,31.40
2022-09-02T15:05:47.021Z,31.30
2022-09-02T15:08:15.636Z,31.30
2022-09-02T15:10:44.894Z,31.20
2022-09-02T15:13:14.928Z,31.20
2022-09-02T15:15:43.207Z,31.10
2022-09-02T15:18:14.324Z,31.10
2022-09-02T15:20:42.554Z,31.00
2022-09-02T15:23:12.755Z,31.00
2022-09-02T15:25:41.529Z,31.00
2022-09-02T15:28:10.973Z,30.90
2022-09-02T15:30:39.905Z,30.90
2022-09-02T15:33:09.236Z,30.80
2022-09-02T15:35:46.585Z,30.80
2022-09-02T15:38:16.219Z,30.80
2022-09-02T15:40:45.139Z,30.70
2022-09-02T15:43:13.924Z,30.70
2022-09-02T15:45:46.061Z,30.70
2022-09-02T15:48:14.306Z,30.70
2022-09-02T15:50:42.904Z,30.60
2022-09-02T15:53:16.903Z,30.60
2022-09-02T15:55:45.087Z,30.60
2022-09-02T15:58:13.650Z,30.60
2022-09-02T16:00:43.903Z,30.60
2022-09-02T16:03:12.280Z,30.50
2022-09-02T16:05:43.087Z,30.50
2022-09-02T16:08:11.499Z,30.50
2022-09-02T16:10:41.234Z,30.50
2022-09-02T16:13:09.362Z,30.40
2022-09-02T16:15:37.514Z,30.40
2022-09-02T16:18:05.884Z,30.30
2022-09-02T16:20:34.053Z,30.30
2022-09-02T16:23:02.428Z,30.20
2022-09-02T16:25:30.541Z,30.20
2022-09-02T16:28:01.491Z,30.10
2022-09-02T16:30:29.989Z,30.00
2022-09-02T16:32:58.211Z,29.90
2022-09-02T16:35:26.370Z,29.80
2022-09-02T16:37:57.722Z,29.80
2022-09-02T16:40:25.958Z,29.70
2022-09-02T16:42:54.178Z,29.70
2022-09-02T16:45:23.709Z,29.60
2022-09-02T16:47:51.915Z,29.50
2022-09-02T16:50:20.138Z,29.40
2022-09-02T16:52:48.300Z,29.30
2022-09-02T16:55:18.761Z,29.20
2022-09-02T16:57:47.050Z,29.20
2022-09-02T17:00:17.556Z,29.10
2022-09-02T17:02:47.287Z,29.10
2022-09-02T17:05:17.433Z,29.10
2022-09-02T17:07:46.734Z,29.00
2022-09-02T17:10:14.957Z,29.00
2022-09-02T17:12:43.454Z,28.90
2022-09-02T17:15:12.179Z,28.90
2022-09-02T17:17:42.242Z,28.80
2022-09-02T17:20:13.127Z,28.70
2022-09-02T17:22:41.631Z,28.70
2022-09-02T17:25:10.381Z,28.60
2022-09-02T17:27:38.869Z,28.50
2022-09-02T17:30:08.633Z,28.40
2022-09-02T17:32:36.808Z,28.30
2022-09-02T17:35:05.390Z,28.20
2022-09-02T17:37:55.158Z,28.10
2022-09-02T17:41:01.453Z,28.00
2022-09-02T17:43:49.955Z,28.00
2022-09-02T17:46:38.359Z,27.80
2022-09-02T17:49:27.144Z,27.70
2022-09-02T17:52:17.228Z,27.60
2022-09-02T17:55:09.462Z,27.40
2022-09-02T17:58:05.258Z,27.30
2022-09-02T18:00:53.679Z,27.20
2022-09-02T18:03:46.152Z,27.00
2022-09-02T18:06:36.722Z,26.90
2022-09-02T18:09:25.675Z,26.70
2022-09-02T18:12:15.616Z,26.60
2022-09-02T18:15:05.721Z,26.40
2022-09-02T18:17:54.273Z,26.30
2022-09-02T18:20:43.670Z,26.20
2022-09-02T18:23:49.376Z,26.00
2022-09-02T18:26:50.020Z,25.90
2022-09-02T18:29:53.184Z,25.80
2022-09-02T18:33:18.231Z,25.60
2022-09-02T18:36:16.154Z,25.60
2022-09-02T18:39:21.579Z,25.50
2022-09-02T18:42:22.205Z,25.40
2022-09-02T18:45:21.585Z,25.30
2022-09-02T18:48:13.164Z,25.20
2022-09-02T18:51:03.579Z,25.20
2022-09-02T18:53:55.575Z,25.10
2022-09-02T18:56:50.157Z,25.00
2022-09-02T18:59:43.040Z,24.90
2022-09-02T19:02:36.733Z,24.80
2022-09-02T19:05:26.934Z,24.70
2022-09-02T19:08:32.854Z,24.70
2022-09-02T19:11:21.736Z,24.60
2022-09-02T19:14:23.075Z,24.50
2022-09-02T19:17:12.561Z,24.50
2022-09-02T19:20:02.607Z,24.40
2022-09-02T19:22:53.477Z,24.40
2022-09-02T19:25:44.065Z,24.30
2022-09-02T19:28:32.559Z,24.30
2022-09-02T19:31:22.752Z,24.30
2022-09-02T19:34:11.382Z,24.20
2022-09-02T19:37:01.201Z,24.20
2022-09-02T19:39:54.070Z,24.10
2022-09-02T19:42:43.317Z,24.10
2022-09-02T19:45:34.803Z,24.10
2022-09-02T19:48:23.473Z,24.00
2022-09-02T19:51:14.105Z,24.00
2022-09-02T19:54:03.935Z,24.00
2022-09-02T19:56:53.000Z,23.90
2022-09-02T19:59:41.536Z,23.90
2022-09-02T20:02:30.032Z,23.80
2022-09-02T20:05:20.155Z,23.80
2022-09-02T20:08:09.658Z,23.80
2022-09-02T20:11:01.587Z,23.70
2022-09-02T20:13:50.218Z,23.70
2022-09-02T20:16:38.788Z,23.70
2022-09-02T20:19:27.352Z,23.60
2022-09-02T20:22:17.360Z,23.60
2022-09-02T20:25:06.376Z,23.60
2022-09-02T20:28:06.116Z,23.50
2022-09-02T20:31:04.981Z,23.50
2022-09-02T20:33:59.449Z,23.50
2022-09-02T20:36:51.708Z,23.50
2022-09-02T20:39:55.693Z,23.50
2022-09-02T20:43:11.519Z,23.40
2022-09-02T20:46:03.288Z,23.40
2022-09-02T20:49:09.211Z,23.40
2022-09-02T20:52:01.745Z,23.40
2022-09-02T20:54:55.142Z,23.40
2022-09-02T20:58:16.041Z,23.30
2022-09-02T21:01:08.154Z,23.30
2022-09-02T21:04:04.627Z,23.30
2022-09-02T21:07:01.227Z,23.30
2022-09-02T21:09:52.161Z,23.30
2022-09-02T21:12:43.227Z,23.20
2022-09-02T21:15:33.452Z,23.20
2022-09-02T21:18:34.214Z,23.20
2022-09-02T21:21:26.289Z,23.20
2022-09-02T21:24:18.019Z,23.20
2022-09-02T21:27:10.991Z,23.20
2022-09-02T21:30:03.171Z,23.20
2022-09-02T21:32:52.717Z,23.10
2022-09-02T21:35:44.195Z,23.10
2022-09-02T21:38:35.941Z,23.10
2022-09-02T21:41:31.777Z,23.10
2022-09-02T21:44:27.443Z,23.10
2022-09-02T21:47:21.499Z,23.10
2022-09-02T21:50:21.394Z,23.10
2022-09-02T21:53:19.019Z,23.00
2022-09-02T21:56:21.178Z,23.00
2022-09-02T21:59:20.439Z,23.00
2022-09-02T22:02:11.242Z,23.00
2022-09-02T22:05:04.169Z,23.00
2022-09-02T22:07:57.692Z,23.00
2022-09-02T22:10:59.276Z,23.00
2022-09-02T22:13:48.457Z,22.90
2022-09-02T22:16:46.021Z,22.90
2022-09-02T22:19:38.867Z,22.90
2022-09-02T22:22:29.765Z,22.90
2022-09-02T22:25:19.117Z,22.80
2022-09-02T22:28:12.336Z,22.80
2022-09-02T22:31:05.563Z,22.80
2022-09-02T22:33:58.616Z,22.80
2022-09-02T22:36:56.428Z,22.80
2022-09-02T22:39:48.996Z,22.70
2022-09-02T22:42:38.835Z,22.70
2022-09-02T22:45:48.834Z,22.70
2022-09-02T22:48:57.379Z,22.60
2022-09-02T22:52:12.830Z,22.60
2022-09-02T22:55:01.581Z,22.70
2022-09-02T22:57:56.309Z,22.60
2022-09-02T23:00:49.717Z,22.60
2022-09-02T23:03:42.164Z,22.50
2022-09-02T23:06:31.723Z,22.50
2022-09-02T23:09:20.148Z,22.50
2022-09-02T23:12:17.608Z,22.50
2022-09-02T23:15:17.988Z,22.50
2022-09-02T23:18:11.737Z,22.50
2022-09-02T23:21:03.393Z,22.50
2022-09-02T23:24:01.956Z,22.50
2022-09-02T23:26:57.994Z,22.50
2022-09-02T23:29:46.588Z,22.50
2022-09-02T23:33:06.271Z,22.50
2022-09-02T23:36:02.826Z,22.50
2022-09-02T23:39:06.959Z,22.50
2022-09-02T23:42:00.668Z,22.50
2022-09-02T23:44:49.143Z,22.50
2022-09-02T23:47:44.501Z,22.50
2022-09-02T23:50:38.103Z,22.50
2022-09-02T23:53:32.643Z,22.50
2022-09-02T23:56:33.464Z,22.60
2022-09-02T23:59:36.236Z,22.60
